Aérodrome :







RETROUVEZ-NOUS SUR...

 
LOGIN :

S'inscrire | Disclaimer

   EN    FR    IT 

 









Légende :    VFR   VFR Marginal   IFR   IFR Intensif   IFR Très Intensif
Visi : 
Plafond : 
>= 8 km
>= 3000ft
5 à 8 km
1000 à 3000 ft
1500m à 5 km
500 à 1000 ft
800 à 1500m
200 à 500 ft
< 800m
< 200 ft
Symboles :   Orages  Brouillard  Fortes neiges  Fortes précipitations  Vent > 20 kt






- Altitude de l'aérodrome : 129 ft
- Code IATA : YVP


CYVP - Kuujjuak

DERNIER METAR :
  • 140600Z 25011G19KT 10SM -SN FEW020 BKN032 BKN047 M09/M11 A2965 RMK SC2SC3SC2 SLP044

METARs EXPIRÉS :
  • 140532Z 26011KT 4SM -SN FEW020 BKN032 OVC050 M08/M11 A2965 RMK SC2SC4SC2 SLP047
  • 140500Z 26010KT 12SM -SN FEW020 BKN032 OVC050 M08/M11 A2966 RMK SC1SC5SC2 SLP049
  • 140400Z 27009KT 15SM -SN BKN027 OVC040 M08/M11 A2968 RMK SC6SC2 SLP055

TAF TAF CYVP
Valide du 14 à 06h jusqu'au 14 à 18h UTC


140544Z 1406/1418 27010KT P6SM BKN030 OVC050
TEMPO 1406/1408 4SM -SN OVC020
PROB30 1406/1408 21/2SM -SN
FM140800 25012G22KT P6SM -SN BKN025 OVC040
TEMPO 1408/1418 4SM -SN OVC020
PROB30 1408/1415 21/2SM -SN RMK NXT FCST BY 141200Z



MET'MAP, la Météo Aéronautique d'un coup d'oeil ! - Copyright ORBIFLY Décembre 2007 - Disclaimer

ORBIFLY MET'MAP TEAM :

Programmation & Développement : Alexandra Zaïnal
Conception & Développement : Baudouin d'Aumeries
Co-Programmation & Développement : Marc-Olivier Méhu
Soutien technique & logistique : Manuel Goepfert

Contact : metmap@orbifly.com




SOURCES & CREDITS :

   NOAA